sensor_id;sensor_type;location;lat;lon;timestamp;P1;durP1;ratioP1;P2;durP2;ratioP2
45714;SDS011;31430;61.646;24.704;2022-07-17T00:00:38;2.80;;;2.60;;
45714;SDS011;31430;61.646;24.704;2022-07-17T00:03:16;2.70;;;2.50;;
45714;SDS011;31430;61.646;24.704;2022-07-17T00:05:43;2.90;;;2.70;;
45714;SDS011;31430;61.646;24.704;2022-07-17T00:08:09;2.80;;;2.60;;
45714;SDS011;31430;61.646;24.704;2022-07-17T00:10:36;2.70;;;2.50;;
45714;SDS011;31430;61.646;24.704;2022-07-17T00:13:03;3.00;;;2.80;;
45714;SDS011;31430;61.646;24.704;2022-07-17T00:15:30;2.80;;;2.60;;
45714;SDS011;31430;61.646;24.704;2022-07-17T00:17:56;2.88;;;2.67;;
45714;SDS011;31430;61.646;24.704;2022-07-17T00:20:22;2.88;;;2.67;;
45714;SDS011;31430;61.646;24.704;2022-07-17T00:22:50;3.10;;;2.90;;
45714;SDS011;31430;61.646;24.704;2022-07-17T00:25:16;2.58;;;2.38;;
45714;SDS011;31430;61.646;24.704;2022-07-17T00:27:42;2.60;;;2.40;;
45714;SDS011;31430;61.646;24.704;2022-07-17T00:30:08;2.83;;;2.63;;
45714;SDS011;31430;61.646;24.704;2022-07-17T00:32:34;2.60;;;2.40;;
45714;SDS011;31430;61.646;24.704;2022-07-17T00:35:00;2.92;;;2.72;;
45714;SDS011;31430;61.646;24.704;2022-07-17T00:37:26;2.83;;;2.63;;
45714;SDS011;31430;61.646;24.704;2022-07-17T00:39:51;3.00;;;2.80;;
45714;SDS011;31430;61.646;24.704;2022-07-17T00:42:17;2.67;;;2.47;;
45714;SDS011;31430;61.646;24.704;2022-07-17T00:44:43;2.72;;;2.53;;
45714;SDS011;31430;61.646;24.704;2022-07-17T00:47:13;2.70;;;2.50;;
45714;SDS011;31430;61.646;24.704;2022-07-17T00:49:39;2.70;;;2.50;;
45714;SDS011;31430;61.646;24.704;2022-07-17T00:52:05;2.70;;;2.50;;
45714;SDS011;31430;61.646;24.704;2022-07-17T00:54:33;2.70;;;2.50;;
45714;SDS011;31430;61.646;24.704;2022-07-17T00:57:02;2.67;;;2.47;;
45714;SDS011;31430;61.646;24.704;2022-07-17T00:59:34;2.75;;;2.55;;
45714;SDS011;31430;61.646;24.704;2022-07-17T01:02:04;2.90;;;2.70;;
45714;SDS011;31430;61.646;24.704;2022-07-17T01:04:34;2.72;;;2.53;;
45714;SDS011;31430;61.646;24.704;2022-07-17T01:07:00;2.80;;;2.60;;
45714;SDS011;31430;61.646;24.704;2022-07-17T01:09:28;2.63;;;2.42;;
45714;SDS011;31430;61.646;24.704;2022-07-17T01:11:55;3.00;;;2.80;;
45714;SDS011;31430;61.646;24.704;2022-07-17T01:14:22;2.83;;;2.63;;
45714;SDS011;31430;61.646;24.704;2022-07-17T01:16:49;2.70;;;2.50;;
45714;SDS011;31430;61.646;24.704;2022-07-17T01:19:16;2.75;;;2.55;;
45714;SDS011;31430;61.646;24.704;2022-07-17T01:21:43;2.78;;;2.58;;
45714;SDS011;31430;61.646;24.704;2022-07-17T01:24:10;2.63;;;2.42;;
45714;SDS011;31430;61.646;24.704;2022-07-17T01:29:06;2.60;;;2.40;;
45714;SDS011;31430;61.646;24.704;2022-07-17T01:31:33;2.67;;;2.47;;
45714;SDS011;31430;61.646;24.704;2022-07-17T01:33:58;2.78;;;2.58;;
45714;SDS011;31430;61.646;24.704;2022-07-17T01:36:26;2.58;;;2.38;;
45714;SDS011;31430;61.646;24.704;2022-07-17T01:38:51;2.55;;;2.35;;
45714;SDS011;31430;61.646;24.704;2022-07-17T01:41:17;3.03;;;2.83;;
45714;SDS011;31430;61.646;24.704;2022-07-17T01:43:43;2.63;;;2.42;;
45714;SDS011;31430;61.646;24.704;2022-07-17T01:46:09;2.50;;;2.30;;
45714;SDS011;31430;61.646;24.704;2022-07-17T01:48:34;2.42;;;2.22;;
45714;SDS011;31430;61.646;24.704;2022-07-17T01:51:00;2.45;;;2.25;;
45714;SDS011;31430;61.646;24.704;2022-07-17T01:53:28;2.75;;;2.55;;
45714;SDS011;31430;61.646;24.704;2022-07-17T01:55:53;2.60;;;2.40;;
45714;SDS011;31430;61.646;24.704;2022-07-17T01:58:19;2.38;;;2.17;;
45714;SDS011;31430;61.646;24.704;2022-07-17T02:00:45;2.45;;;2.25;;
45714;SDS011;31430;61.646;24.704;2022-07-17T02:03:11;2.53;;;2.33;;
45714;SDS011;31430;61.646;24.704;2022-07-17T02:05:36;2.60;;;2.40;;
45714;SDS011;31430;61.646;24.704;2022-07-17T02:08:02;2.53;;;2.33;;
45714;SDS011;31430;61.646;24.704;2022-07-17T02:10:28;2.63;;;2.42;;
45714;SDS011;31430;61.646;24.704;2022-07-17T02:12:54;2.38;;;2.17;;
45714;SDS011;31430;61.646;24.704;2022-07-17T02:15:19;2.30;;;2.10;;
45714;SDS011;31430;61.646;24.704;2022-07-17T02:17:45;2.30;;;2.10;;
45714;SDS011;31430;61.646;24.704;2022-07-17T02:20:12;2.40;;;2.20;;
45714;SDS011;31430;61.646;24.704;2022-07-17T02:22:38;2.42;;;2.22;;
45714;SDS011;31430;61.646;24.704;2022-07-17T02:25:05;2.47;;;2.28;;
45714;SDS011;31430;61.646;24.704;2022-07-17T02:27:31;2.40;;;2.20;;
45714;SDS011;31430;61.646;24.704;2022-07-17T02:29:57;2.22;;;2.03;;
45714;SDS011;31430;61.646;24.704;2022-07-17T02:32:26;2.22;;;2.03;;
45714;SDS011;31430;61.646;24.704;2022-07-17T02:34:51;2.28;;;2.08;;
45714;SDS011;31430;61.646;24.704;2022-07-17T02:37:17;2.50;;;2.30;;
45714;SDS011;31430;61.646;24.704;2022-07-17T02:39:42;2.17;;;1.98;;
45714;SDS011;31430;61.646;24.704;2022-07-17T02:42:21;2.30;;;2.10;;
45714;SDS011;31430;61.646;24.704;2022-07-17T02:44:50;2.25;;;2.05;;
45714;SDS011;31430;61.646;24.704;2022-07-17T02:47:20;2.63;;;2.42;;
45714;SDS011;31430;61.646;24.704;2022-07-17T02:49:47;2.53;;;2.33;;
45714;SDS011;31430;61.646;24.704;2022-07-17T02:52:14;2.53;;;2.33;;
45714;SDS011;31430;61.646;24.704;2022-07-17T02:54:39;2.60;;;2.40;;
45714;SDS011;31430;61.646;24.704;2022-07-17T02:57:05;2.58;;;2.38;;
45714;SDS011;31430;61.646;24.704;2022-07-17T02:59:31;2.67;;;2.47;;
45714;SDS011;31430;61.646;24.704;2022-07-17T03:01:56;2.42;;;2.22;;
45714;SDS011;31430;61.646;24.704;2022-07-17T03:04:22;2.50;;;2.30;;
45714;SDS011;31430;61.646;24.704;2022-07-17T03:06:47;2.67;;;2.47;;
45714;SDS011;31430;61.646;24.704;2022-07-17T03:09:13;2.83;;;2.63;;
45714;SDS011;31430;61.646;24.704;2022-07-17T03:11:39;2.50;;;2.30;;
45714;SDS011;31430;61.646;24.704;2022-07-17T03:14:04;2.72;;;2.53;;
45714;SDS011;31430;61.646;24.704;2022-07-17T03:16:30;2.58;;;2.38;;
45714;SDS011;31430;61.646;24.704;2022-07-17T03:18:55;2.63;;;2.42;;
45714;SDS011;31430;61.646;24.704;2022-07-17T03:21:21;2.92;;;2.72;;
45714;SDS011;31430;61.646;24.704;2022-07-17T03:23:47;2.58;;;2.38;;
45714;SDS011;31430;61.646;24.704;2022-07-17T03:26:12;2.65;;;2.45;;
45714;SDS011;31430;61.646;24.704;2022-07-17T03:28:38;2.63;;;2.42;;
45714;SDS011;31430;61.646;24.704;2022-07-17T03:31:04;2.78;;;2.58;;
45714;SDS011;31430;61.646;24.704;2022-07-17T03:33:29;2.83;;;2.63;;
45714;SDS011;31430;61.646;24.704;2022-07-17T03:35:55;2.80;;;2.60;;
45714;SDS011;31430;61.646;24.704;2022-07-17T03:38:21;2.67;;;2.47;;
45714;SDS011;31430;61.646;24.704;2022-07-17T03:40:46;2.63;;;2.42;;
45714;SDS011;31430;61.646;24.704;2022-07-17T03:43:12;2.65;;;2.45;;
45714;SDS011;31430;61.646;24.704;2022-07-17T03:45:39;2.72;;;2.53;;
45714;SDS011;31430;61.646;24.704;2022-07-17T03:48:05;2.72;;;2.53;;
45714;SDS011;31430;61.646;24.704;2022-07-17T03:50:30;2.75;;;2.55;;
45714;SDS011;31430;61.646;24.704;2022-07-17T03:52:56;2.65;;;2.45;;
45714;SDS011;31430;61.646;24.704;2022-07-17T03:55:22;2.70;;;2.50;;
45714;SDS011;31430;61.646;24.704;2022-07-17T03:57:48;2.60;;;2.40;;
45714;SDS011;31430;61.646;24.704;2022-07-17T04:00:13;2.60;;;2.40;;
45714;SDS011;31430;61.646;24.704;2022-07-17T04:02:40;2.90;;;2.70;;
45714;SDS011;31430;61.646;24.704;2022-07-17T04:05:06;2.60;;;2.40;;
45714;SDS011;31430;61.646;24.704;2022-07-17T04:07:35;2.58;;;2.38;;
45714;SDS011;31430;61.646;24.704;2022-07-17T04:10:04;2.60;;;2.40;;
45714;SDS011;31430;61.646;24.704;2022-07-17T04:12:31;2.50;;;2.30;;
45714;SDS011;31430;61.646;24.704;2022-07-17T04:14:57;2.58;;;2.38;;
45714;SDS011;31430;61.646;24.704;2022-07-17T04:17:23;2.60;;;2.40;;
45714;SDS011;31430;61.646;24.704;2022-07-17T04:19:48;2.40;;;2.20;;
45714;SDS011;31430;61.646;24.704;2022-07-17T04:22:15;2.50;;;2.30;;
45714;SDS011;31430;61.646;24.704;2022-07-17T04:24:41;2.60;;;2.40;;
45714;SDS011;31430;61.646;24.704;2022-07-17T04:27:07;2.55;;;2.35;;
45714;SDS011;31430;61.646;24.704;2022-07-17T04:31:58;2.58;;;2.38;;
45714;SDS011;31430;61.646;24.704;2022-07-17T04:34:24;2.65;;;2.45;;
45714;SDS011;31430;61.646;24.704;2022-07-17T04:36:50;2.60;;;2.40;;
45714;SDS011;31430;61.646;24.704;2022-07-17T04:39:15;2.70;;;2.50;;
45714;SDS011;31430;61.646;24.704;2022-07-17T04:41:41;2.80;;;2.60;;
45714;SDS011;31430;61.646;24.704;2022-07-17T04:44:07;2.58;;;2.38;;
45714;SDS011;31430;61.646;24.704;2022-07-17T04:46:32;2.60;;;2.40;;
45714;SDS011;31430;61.646;24.704;2022-07-17T04:48:58;2.63;;;2.42;;
45714;SDS011;31430;61.646;24.704;2022-07-17T04:51:24;2.55;;;2.35;;
45714;SDS011;31430;61.646;24.704;2022-07-17T04:54:08;2.50;;;2.30;;
45714;SDS011;31430;61.646;24.704;2022-07-17T04:56:33;2.65;;;2.45;;
45714;SDS011;31430;61.646;24.704;2022-07-17T04:58:59;2.60;;;2.40;;
45714;SDS011;31430;61.646;24.704;2022-07-17T05:01:25;2.58;;;2.38;;
45714;SDS011;31430;61.646;24.704;2022-07-17T05:03:50;2.40;;;2.20;;
45714;SDS011;31430;61.646;24.704;2022-07-17T05:06:16;2.55;;;2.35;;
45714;SDS011;31430;61.646;24.704;2022-07-17T05:08:42;2.70;;;2.50;;
45714;SDS011;31430;61.646;24.704;2022-07-17T05:11:07;2.50;;;2.30;;
45714;SDS011;31430;61.646;24.704;2022-07-17T05:13:33;2.58;;;2.38;;
45714;SDS011;31430;61.646;24.704;2022-07-17T05:15:59;2.42;;;2.22;;
45714;SDS011;31430;61.646;24.704;2022-07-17T05:18:25;2.45;;;2.25;;
45714;SDS011;31430;61.646;24.704;2022-07-17T05:20:50;2.47;;;2.28;;
45714;SDS011;31430;61.646;24.704;2022-07-17T05:23:16;2.50;;;2.30;;
45714;SDS011;31430;61.646;24.704;2022-07-17T05:25:42;2.40;;;2.20;;
45714;SDS011;31430;61.646;24.704;2022-07-17T05:28:08;2.40;;;2.20;;
45714;SDS011;31430;61.646;24.704;2022-07-17T05:30:34;2.38;;;2.17;;
45714;SDS011;31430;61.646;24.704;2022-07-17T05:33:00;2.70;;;2.50;;
45714;SDS011;31430;61.646;24.704;2022-07-17T05:35:25;2.35;;;2.15;;
45714;SDS011;31430;61.646;24.704;2022-07-17T05:37:52;2.55;;;2.35;;
45714;SDS011;31430;61.646;24.704;2022-07-17T05:40:18;2.50;;;2.30;;
45714;SDS011;31430;61.646;24.704;2022-07-17T05:42:43;2.50;;;2.30;;
45714;SDS011;31430;61.646;24.704;2022-07-17T05:45:09;2.40;;;2.20;;
45714;SDS011;31430;61.646;24.704;2022-07-17T05:47:35;2.58;;;2.38;;
45714;SDS011;31430;61.646;24.704;2022-07-17T05:50:00;2.50;;;2.30;;
45714;SDS011;31430;61.646;24.704;2022-07-17T05:52:26;2.63;;;2.42;;
45714;SDS011;31430;61.646;24.704;2022-07-17T05:54:52;2.50;;;2.30;;
45714;SDS011;31430;61.646;24.704;2022-07-17T05:57:17;2.50;;;2.30;;
45714;SDS011;31430;61.646;24.704;2022-07-17T05:59:46;2.50;;;2.30;;
45714;SDS011;31430;61.646;24.704;2022-07-17T06:02:11;2.75;;;2.55;;
45714;SDS011;31430;61.646;24.704;2022-07-17T06:04:37;2.58;;;2.38;;
45714;SDS011;31430;61.646;24.704;2022-07-17T06:07:03;2.67;;;2.47;;
45714;SDS011;31430;61.646;24.704;2022-07-17T06:09:29;2.60;;;2.40;;
45714;SDS011;31430;61.646;24.704;2022-07-17T06:11:54;2.60;;;2.40;;
45714;SDS011;31430;61.646;24.704;2022-07-17T06:14:20;2.50;;;2.30;;
45714;SDS011;31430;61.646;24.704;2022-07-17T06:16:45;2.58;;;2.38;;
45714;SDS011;31430;61.646;24.704;2022-07-17T06:19:11;2.50;;;2.30;;
45714;SDS011;31430;61.646;24.704;2022-07-17T06:21:37;2.70;;;2.50;;
45714;SDS011;31430;61.646;24.704;2022-07-17T06:24:02;2.67;;;2.47;;
45714;SDS011;31430;61.646;24.704;2022-07-17T06:26:28;2.88;;;2.67;;
45714;SDS011;31430;61.646;24.704;2022-07-17T06:28:54;2.83;;;2.63;;
45714;SDS011;31430;61.646;24.704;2022-07-17T06:31:19;2.70;;;2.50;;
45714;SDS011;31430;61.646;24.704;2022-07-17T06:33:46;2.53;;;2.33;;
45714;SDS011;31430;61.646;24.704;2022-07-17T06:36:12;2.50;;;2.30;;
45714;SDS011;31430;61.646;24.704;2022-07-17T06:38:37;2.50;;;2.30;;
45714;SDS011;31430;61.646;24.704;2022-07-17T06:41:03;2.60;;;2.40;;
45714;SDS011;31430;61.646;24.704;2022-07-17T06:43:29;2.58;;;2.38;;
45714;SDS011;31430;61.646;24.704;2022-07-17T06:45:54;2.50;;;2.30;;
45714;SDS011;31430;61.646;24.704;2022-07-17T06:48:20;2.65;;;2.45;;
45714;SDS011;31430;61.646;24.704;2022-07-17T06:50:46;2.50;;;2.30;;
45714;SDS011;31430;61.646;24.704;2022-07-17T06:53:12;2.50;;;2.30;;
45714;SDS011;31430;61.646;24.704;2022-07-17T06:55:38;2.75;;;2.55;;
45714;SDS011;31430;61.646;24.704;2022-07-17T06:58:05;2.50;;;2.30;;
45714;SDS011;31430;61.646;24.704;2022-07-17T07:00:31;2.50;;;2.30;;
45714;SDS011;31430;61.646;24.704;2022-07-17T07:02:57;2.40;;;2.20;;
45714;SDS011;31430;61.646;24.704;2022-07-17T07:05:22;2.40;;;2.20;;
45714;SDS011;31430;61.646;24.704;2022-07-17T07:07:48;2.40;;;2.20;;
45714;SDS011;31430;61.646;24.704;2022-07-17T07:10:14;2.53;;;2.33;;
45714;SDS011;31430;61.646;24.704;2022-07-17T07:12:40;2.40;;;2.20;;
45714;SDS011;31430;61.646;24.704;2022-07-17T07:15:06;2.40;;;2.20;;
45714;SDS011;31430;61.646;24.704;2022-07-17T07:17:35;2.35;;;2.15;;
45714;SDS011;31430;61.646;24.704;2022-07-17T07:20:02;2.40;;;2.20;;
45714;SDS011;31430;61.646;24.704;2022-07-17T07:22:29;2.40;;;2.20;;
45714;SDS011;31430;61.646;24.704;2022-07-17T07:24:56;2.45;;;2.25;;
45714;SDS011;31430;61.646;24.704;2022-07-17T07:27:21;2.25;;;2.05;;
45714;SDS011;31430;61.646;24.704;2022-07-17T07:29:47;2.40;;;2.20;;
45714;SDS011;31430;61.646;24.704;2022-07-17T07:32:13;2.40;;;2.20;;
45714;SDS011;31430;61.646;24.704;2022-07-17T07:34:39;2.53;;;2.33;;
45714;SDS011;31430;61.646;24.704;2022-07-17T07:37:04;2.38;;;2.17;;
45714;SDS011;31430;61.646;24.704;2022-07-17T07:39:30;2.35;;;2.15;;
45714;SDS011;31430;61.646;24.704;2022-07-17T07:41:56;2.47;;;2.28;;
45714;SDS011;31430;61.646;24.704;2022-07-17T07:44:21;2.38;;;2.17;;
45714;SDS011;31430;61.646;24.704;2022-07-17T07:46:47;2.40;;;2.20;;
45714;SDS011;31430;61.646;24.704;2022-07-17T07:49:13;2.40;;;2.20;;
45714;SDS011;31430;61.646;24.704;2022-07-17T07:51:39;2.40;;;2.20;;
45714;SDS011;31430;61.646;24.704;2022-07-17T07:54:05;2.45;;;2.25;;
45714;SDS011;31430;61.646;24.704;2022-07-17T07:57:23;2.50;;;2.30;;
45714;SDS011;31430;61.646;24.704;2022-07-17T07:59:49;2.30;;;2.10;;
45714;SDS011;31430;61.646;24.704;2022-07-17T08:02:15;2.30;;;2.10;;
45714;SDS011;31430;61.646;24.704;2022-07-17T08:04:40;2.42;;;2.22;;
45714;SDS011;31430;61.646;24.704;2022-07-17T08:07:06;2.33;;;2.13;;
45714;SDS011;31430;61.646;24.704;2022-07-17T08:09:32;2.50;;;2.30;;
45714;SDS011;31430;61.646;24.704;2022-07-17T08:11:57;2.40;;;2.20;;
45714;SDS011;31430;61.646;24.704;2022-07-17T08:14:23;2.30;;;2.10;;
45714;SDS011;31430;61.646;24.704;2022-07-17T08:16:49;2.28;;;2.08;;
45714;SDS011;31430;61.646;24.704;2022-07-17T08:19:14;2.28;;;2.08;;
45714;SDS011;31430;61.646;24.704;2022-07-17T08:21:40;2.30;;;2.10;;
45714;SDS011;31430;61.646;24.704;2022-07-17T08:24:06;2.33;;;2.13;;
45714;SDS011;31430;61.646;24.704;2022-07-17T08:26:32;2.45;;;2.25;;
45714;SDS011;31430;61.646;24.704;2022-07-17T08:28:57;2.40;;;2.20;;
45714;SDS011;31430;61.646;24.704;2022-07-17T08:31:23;2.60;;;2.40;;
45714;SDS011;31430;61.646;24.704;2022-07-17T08:33:50;2.30;;;2.10;;
45714;SDS011;31430;61.646;24.704;2022-07-17T08:36:16;2.40;;;2.20;;
45714;SDS011;31430;61.646;24.704;2022-07-17T08:38:41;2.33;;;2.13;;
45714;SDS011;31430;61.646;24.704;2022-07-17T08:41:07;2.30;;;2.10;;
45714;SDS011;31430;61.646;24.704;2022-07-17T08:43:35;2.38;;;2.17;;
45714;SDS011;31430;61.646;24.704;2022-07-17T08:46:01;2.30;;;2.10;;
45714;SDS011;31430;61.646;24.704;2022-07-17T08:48:27;2.30;;;2.10;;
45714;SDS011;31430;61.646;24.704;2022-07-17T08:50:58;2.38;;;2.17;;
45714;SDS011;31430;61.646;24.704;2022-07-17T08:53:24;2.22;;;2.03;;
45714;SDS011;31430;61.646;24.704;2022-07-17T08:55:50;2.45;;;2.25;;
45714;SDS011;31430;61.646;24.704;2022-07-17T08:58:16;2.38;;;2.17;;
45714;SDS011;31430;61.646;24.704;2022-07-17T09:00:42;2.33;;;2.13;;
45714;SDS011;31430;61.646;24.704;2022-07-17T09:03:09;2.15;;;1.95;;
45714;SDS011;31430;61.646;24.704;2022-07-17T09:05:35;2.38;;;2.17;;
45714;SDS011;31430;61.646;24.704;2022-07-17T09:08:05;2.28;;;2.08;;
45714;SDS011;31430;61.646;24.704;2022-07-17T09:10:33;2.20;;;2.00;;
45714;SDS011;31430;61.646;24.704;2022-07-17T09:13:00;2.20;;;2.00;;
45714;SDS011;31430;61.646;24.704;2022-07-17T09:15:26;2.25;;;2.05;;
45714;SDS011;31430;61.646;24.704;2022-07-17T09:17:54;2.30;;;2.10;;
45714;SDS011;31430;61.646;24.704;2022-07-17T09:20:21;2.30;;;2.10;;
45714;SDS011;31430;61.646;24.704;2022-07-17T09:22:57;2.20;;;2.00;;
45714;SDS011;31430;61.646;24.704;2022-07-17T09:26:00;2.33;;;2.13;;
45714;SDS011;31430;61.646;24.704;2022-07-17T09:28:20;2.40;;;2.20;;
45714;SDS011;31430;61.646;24.704;2022-07-17T09:30:48;2.50;;;2.30;;
45714;SDS011;31430;61.646;24.704;2022-07-17T09:33:16;2.33;;;2.13;;
45714;SDS011;31430;61.646;24.704;2022-07-17T09:36:20;2.40;;;2.20;;
45714;SDS011;31430;61.646;24.704;2022-07-17T09:38:39;2.60;;;2.40;;
45714;SDS011;31430;61.646;24.704;2022-07-17T09:41:13;2.33;;;2.13;;
45714;SDS011;31430;61.646;24.704;2022-07-17T09:43:42;2.35;;;2.15;;
45714;SDS011;31430;61.646;24.704;2022-07-17T09:46:11;2.40;;;2.20;;
45714;SDS011;31430;61.646;24.704;2022-07-17T09:48:43;2.50;;;2.30;;
45714;SDS011;31430;61.646;24.704;2022-07-17T09:51:46;2.42;;;2.22;;
45714;SDS011;31430;61.646;24.704;2022-07-17T09:54:06;2.42;;;2.22;;
45714;SDS011;31430;61.646;24.704;2022-07-17T09:56:35;2.65;;;2.45;;
45714;SDS011;31430;61.646;24.704;2022-07-17T10:01:36;2.58;;;2.38;;
45714;SDS011;31430;61.646;24.704;2022-07-17T10:04:04;2.40;;;2.20;;
45714;SDS011;31430;61.646;24.704;2022-07-17T10:06:30;2.55;;;2.35;;
45714;SDS011;31430;61.646;24.704;2022-07-17T10:08:56;2.50;;;2.30;;
45714;SDS011;31430;61.646;24.704;2022-07-17T10:11:23;2.58;;;2.38;;
45714;SDS011;31430;61.646;24.704;2022-07-17T10:13:51;2.53;;;2.33;;
45714;SDS011;31430;61.646;24.704;2022-07-17T10:16:29;2.40;;;2.20;;
45714;SDS011;31430;61.646;24.704;2022-07-17T10:18:56;2.72;;;2.53;;
45714;SDS011;31430;61.646;24.704;2022-07-17T10:21:24;2.60;;;2.40;;
45714;SDS011;31430;61.646;24.704;2022-07-17T10:26:31;2.50;;;2.30;;
45714;SDS011;31430;61.646;24.704;2022-07-17T10:28:57;2.65;;;2.45;;
45714;SDS011;31430;61.646;24.704;2022-07-17T10:31:24;2.50;;;2.30;;
45714;SDS011;31430;61.646;24.704;2022-07-17T10:33:57;2.50;;;2.30;;
45714;SDS011;31430;61.646;24.704;2022-07-17T10:36:37;2.50;;;2.30;;
45714;SDS011;31430;61.646;24.704;2022-07-17T10:41:42;2.42;;;2.22;;
45714;SDS011;31430;61.646;24.704;2022-07-17T10:44:23;2.65;;;2.45;;
45714;SDS011;31430;61.646;24.704;2022-07-17T10:46:51;2.60;;;2.40;;
45714;SDS011;31430;61.646;24.704;2022-07-17T10:49:17;2.40;;;2.20;;
45714;SDS011;31430;61.646;24.704;2022-07-17T10:51:43;2.72;;;2.53;;
45714;SDS011;31430;61.646;24.704;2022-07-17T10:54:09;2.60;;;2.40;;
45714;SDS011;31430;61.646;24.704;2022-07-17T10:56:35;2.50;;;2.30;;
45714;SDS011;31430;61.646;24.704;2022-07-17T10:59:01;2.50;;;2.30;;
45714;SDS011;31430;61.646;24.704;2022-07-17T11:01:27;2.53;;;2.33;;
45714;SDS011;31430;61.646;24.704;2022-07-17T11:03:54;2.67;;;2.47;;
45714;SDS011;31430;61.646;24.704;2022-07-17T11:06:23;2.53;;;2.33;;
45714;SDS011;31430;61.646;24.704;2022-07-17T11:08:51;2.70;;;2.50;;
45714;SDS011;31430;61.646;24.704;2022-07-17T11:11:38;2.50;;;2.30;;
45714;SDS011;31430;61.646;24.704;2022-07-17T11:16:52;2.55;;;2.35;;
45714;SDS011;31430;61.646;24.704;2022-07-17T11:19:24;2.38;;;2.17;;
45714;SDS011;31430;61.646;24.704;2022-07-17T11:21:50;2.30;;;2.10;;
45714;SDS011;31430;61.646;24.704;2022-07-17T11:24:16;2.40;;;2.20;;
45714;SDS011;31430;61.646;24.704;2022-07-17T11:26:43;2.35;;;2.15;;
45714;SDS011;31430;61.646;24.704;2022-07-17T11:29:09;2.40;;;2.20;;
45714;SDS011;31430;61.646;24.704;2022-07-17T11:31:35;2.30;;;2.10;;
45714;SDS011;31430;61.646;24.704;2022-07-17T11:34:05;2.22;;;2.03;;
45714;SDS011;31430;61.646;24.704;2022-07-17T11:39:04;2.30;;;2.10;;
45714;SDS011;31430;61.646;24.704;2022-07-17T11:41:39;2.30;;;2.10;;
45714;SDS011;31430;61.646;24.704;2022-07-17T11:44:06;2.35;;;2.15;;
45714;SDS011;31430;61.646;24.704;2022-07-17T11:46:37;2.30;;;2.10;;
45714;SDS011;31430;61.646;24.704;2022-07-17T11:49:04;2.30;;;2.10;;
45714;SDS011;31430;61.646;24.704;2022-07-17T11:51:41;2.38;;;2.17;;
45714;SDS011;31430;61.646;24.704;2022-07-17T11:54:12;2.35;;;2.15;;
45714;SDS011;31430;61.646;24.704;2022-07-17T11:56:40;2.38;;;2.17;;
45714;SDS011;31430;61.646;24.704;2022-07-17T11:59:22;2.30;;;2.10;;
45714;SDS011;31430;61.646;24.704;2022-07-17T12:01:50;2.50;;;2.30;;
45714;SDS011;31430;61.646;24.704;2022-07-17T12:04:16;2.50;;;2.30;;
45714;SDS011;31430;61.646;24.704;2022-07-17T12:06:41;2.50;;;2.30;;
45714;SDS011;31430;61.646;24.704;2022-07-17T12:09:07;2.72;;;2.53;;
45714;SDS011;31430;61.646;24.704;2022-07-17T12:11:36;2.50;;;2.30;;
45714;SDS011;31430;61.646;24.704;2022-07-17T12:14:10;2.53;;;2.33;;
45714;SDS011;31430;61.646;24.704;2022-07-17T12:16:36;2.72;;;2.53;;
45714;SDS011;31430;61.646;24.704;2022-07-17T12:21:32;2.75;;;2.55;;
45714;SDS011;31430;61.646;24.704;2022-07-17T12:26:25;2.67;;;2.47;;
45714;SDS011;31430;61.646;24.704;2022-07-17T12:31:17;2.88;;;2.67;;
45714;SDS011;31430;61.646;24.704;2022-07-17T12:33:44;2.63;;;2.42;;
45714;SDS011;31430;61.646;24.704;2022-07-17T12:36:10;2.70;;;2.50;;
45714;SDS011;31430;61.646;24.704;2022-07-17T12:41:03;2.72;;;2.53;;
45714;SDS011;31430;61.646;24.704;2022-07-17T12:43:29;2.60;;;2.40;;
45714;SDS011;31430;61.646;24.704;2022-07-17T12:45:55;2.58;;;2.38;;
45714;SDS011;31430;61.646;24.704;2022-07-17T12:48:21;3.05;;;2.85;;
45714;SDS011;31430;61.646;24.704;2022-07-17T12:50:47;2.50;;;2.30;;
45714;SDS011;31430;61.646;24.704;2022-07-17T12:53:13;2.50;;;2.30;;
45714;SDS011;31430;61.646;24.704;2022-07-17T12:55:38;2.60;;;2.40;;
45714;SDS011;31430;61.646;24.704;2022-07-17T12:58:04;2.67;;;2.47;;
45714;SDS011;31430;61.646;24.704;2022-07-17T13:00:30;2.63;;;2.42;;
45714;SDS011;31430;61.646;24.704;2022-07-17T13:02:56;2.53;;;2.33;;
45714;SDS011;31430;61.646;24.704;2022-07-17T13:05:22;2.42;;;2.22;;
45714;SDS011;31430;61.646;24.704;2022-07-17T13:07:48;2.65;;;2.45;;
45714;SDS011;31430;61.646;24.704;2022-07-17T13:12:39;2.60;;;2.40;;
45714;SDS011;31430;61.646;24.704;2022-07-17T13:15:05;2.55;;;2.35;;
45714;SDS011;31430;61.646;24.704;2022-07-17T13:19:57;2.70;;;2.50;;
45714;SDS011;31430;61.646;24.704;2022-07-17T13:22:22;2.78;;;2.58;;
45714;SDS011;31430;61.646;24.704;2022-07-17T13:24:48;2.60;;;2.40;;
45714;SDS011;31430;61.646;24.704;2022-07-17T13:27:14;2.67;;;2.47;;
45714;SDS011;31430;61.646;24.704;2022-07-17T13:29:39;2.72;;;2.53;;
45714;SDS011;31430;61.646;24.704;2022-07-17T13:32:05;2.60;;;2.40;;
45714;SDS011;31430;61.646;24.704;2022-07-17T13:34:31;2.47;;;2.28;;
45714;SDS011;31430;61.646;24.704;2022-07-17T13:36:56;2.50;;;2.30;;
45714;SDS011;31430;61.646;24.704;2022-07-17T13:39:22;2.50;;;2.30;;
45714;SDS011;31430;61.646;24.704;2022-07-17T13:41:49;2.50;;;2.30;;
45714;SDS011;31430;61.646;24.704;2022-07-17T13:44:15;2.60;;;2.40;;
45714;SDS011;31430;61.646;24.704;2022-07-17T13:46:40;2.42;;;2.22;;
45714;SDS011;31430;61.646;24.704;2022-07-17T13:49:06;2.42;;;2.22;;
45714;SDS011;31430;61.646;24.704;2022-07-17T13:51:32;2.47;;;2.28;;
45714;SDS011;31430;61.646;24.704;2022-07-17T13:53:59;2.58;;;2.38;;
45714;SDS011;31430;61.646;24.704;2022-07-17T13:56:24;2.53;;;2.33;;
45714;SDS011;31430;61.646;24.704;2022-07-17T13:58:51;2.83;;;2.63;;
45714;SDS011;31430;61.646;24.704;2022-07-17T14:01:17;2.42;;;2.22;;
45714;SDS011;31430;61.646;24.704;2022-07-17T14:03:43;2.40;;;2.20;;
45714;SDS011;31430;61.646;24.704;2022-07-17T14:06:08;2.70;;;2.50;;
45714;SDS011;31430;61.646;24.704;2022-07-17T14:08:34;2.47;;;2.28;;
45714;SDS011;31430;61.646;24.704;2022-07-17T14:11:00;2.60;;;2.40;;
45714;SDS011;31430;61.646;24.704;2022-07-17T14:13:26;2.60;;;2.40;;
45714;SDS011;31430;61.646;24.704;2022-07-17T14:15:53;2.53;;;2.33;;
45714;SDS011;31430;61.646;24.704;2022-07-17T14:18:19;2.63;;;2.42;;
45714;SDS011;31430;61.646;24.704;2022-07-17T14:20:44;2.55;;;2.35;;
45714;SDS011;31430;61.646;24.704;2022-07-17T14:23:10;3.05;;;2.85;;
45714;SDS011;31430;61.646;24.704;2022-07-17T14:28:02;2.63;;;2.42;;
45714;SDS011;31430;61.646;24.704;2022-07-17T14:30:27;2.70;;;2.50;;
45714;SDS011;31430;61.646;24.704;2022-07-17T14:32:53;2.58;;;2.38;;
45714;SDS011;31430;61.646;24.704;2022-07-17T14:35:19;2.60;;;2.40;;
45714;SDS011;31430;61.646;24.704;2022-07-17T14:37:45;2.83;;;2.63;;
45714;SDS011;31430;61.646;24.704;2022-07-17T14:40:11;2.70;;;2.50;;
45714;SDS011;31430;61.646;24.704;2022-07-17T14:42:38;2.70;;;2.50;;
45714;SDS011;31430;61.646;24.704;2022-07-17T14:45:04;2.80;;;2.60;;
45714;SDS011;31430;61.646;24.704;2022-07-17T14:47:30;2.60;;;2.40;;
45714;SDS011;31430;61.646;24.704;2022-07-17T14:49:56;2.50;;;2.30;;
45714;SDS011;31430;61.646;24.704;2022-07-17T14:52:21;2.63;;;2.42;;
45714;SDS011;31430;61.646;24.704;2022-07-17T14:54:47;2.88;;;2.67;;
45714;SDS011;31430;61.646;24.704;2022-07-17T14:57:13;2.63;;;2.42;;
45714;SDS011;31430;61.646;24.704;2022-07-17T14:59:39;2.60;;;2.40;;
45714;SDS011;31430;61.646;24.704;2022-07-17T15:02:05;2.72;;;2.53;;
45714;SDS011;31430;61.646;24.704;2022-07-17T15:04:30;2.80;;;2.60;;
45714;SDS011;31430;61.646;24.704;2022-07-17T15:06:56;2.70;;;2.50;;